createdAt,value
2023-03-21T00:01:06.996Z,3.93
2023-03-21T00:06:12.227Z,6.32
2023-03-21T00:11:15.024Z,8.40
2023-03-21T00:16:26.826Z,6.07
2023-03-21T00:21:59.502Z,5.95
2023-03-21T00:32:31.866Z,6.97
2023-03-21T00:37:36.693Z,7.40
2023-03-21T00:42:39.347Z,7.18
2023-03-21T00:47:42.201Z,6.20
2023-03-21T00:52:45.154Z,6.57
2023-03-21T00:57:56.275Z,5.03
2023-03-21T01:03:21.330Z,7.90
2023-03-21T01:08:35.207Z,5.88
2023-03-21T01:13:53.842Z,7.55
2023-03-21T01:19:00.095Z,6.97
2023-03-21T01:24:03.063Z,5.05
2023-03-21T01:29:05.949Z,4.77
2023-03-21T01:34:08.811Z,6.50
2023-03-21T01:39:11.860Z,6.55
2023-03-21T01:44:17.547Z,4.50
2023-03-21T01:49:36.445Z,5.95
2023-03-21T01:54:49.004Z,12.73
2023-03-21T01:59:54.925Z,5.27
2023-03-21T02:05:53.740Z,5.25
2023-03-21T02:10:58.673Z,5.47
2023-03-21T02:16:30.768Z,4.32
2023-03-21T02:22:10.617Z,5.75
2023-03-21T02:27:19.199Z,5.22
2023-03-21T02:32:43.807Z,4.80
2023-03-21T02:38:00.787Z,4.43
2023-03-21T02:43:32.018Z,3.85
2023-03-21T02:48:50.184Z,5.13
2023-03-21T02:54:27.831Z,3.58
2023-03-21T02:59:28.334Z,3.97
2023-03-21T03:04:33.936Z,3.92
2023-03-21T03:15:03.102Z,2.83
2023-03-21T03:20:44.833Z,3.60
2023-03-21T03:25:55.835Z,8.00
2023-03-21T03:31:09.215Z,4.50
2023-03-21T03:36:33.253Z,4.00
2023-03-21T03:42:10.068Z,3.42
2023-03-21T03:47:33.699Z,3.30
2023-03-21T03:52:57.010Z,4.30
2023-03-21T03:58:06.456Z,3.30
2023-03-21T04:03:15.119Z,3.38
2023-03-21T04:08:18.119Z,3.17
2023-03-21T04:13:26.864Z,3.33
2023-03-21T04:18:40.723Z,3.70
2023-03-21T04:23:44.187Z,3.43
2023-03-21T04:28:47.178Z,3.72
2023-03-21T04:33:59.983Z,3.10
2023-03-21T04:39:03.322Z,2.70
2023-03-21T04:44:07.730Z,3.70
2023-03-21T04:49:10.760Z,3.15
2023-03-21T04:59:17.589Z,2.60
2023-03-21T05:04:20.527Z,2.75
2023-03-21T05:09:23.514Z,2.83
2023-03-21T05:14:27.682Z,2.17
2023-03-21T05:19:40.938Z,2.90
2023-03-21T05:24:43.902Z,2.97
2023-03-21T05:29:54.869Z,3.47
2023-03-21T05:34:57.674Z,3.10
2023-03-21T05:40:00.724Z,2.70
2023-03-21T05:45:07.857Z,3.05
2023-03-21T05:50:13.613Z,3.13
2023-03-21T05:55:20.171Z,3.28
2023-03-21T06:00:23.086Z,2.70
2023-03-21T06:05:42.249Z,2.58
2023-03-21T06:10:52.229Z,2.65
2023-03-21T06:15:55.102Z,3.00
2023-03-21T06:21:01.180Z,2.67
2023-03-21T06:26:04.857Z,2.78
2023-03-21T06:31:08.064Z,2.90
2023-03-21T06:36:11.295Z,2.78
2023-03-21T06:41:14.662Z,2.40
2023-03-21T06:46:25.093Z,3.17
2023-03-21T06:51:28.082Z,2.70
2023-03-21T06:56:57.189Z,2.50
2023-03-21T07:02:04.755Z,2.45
2023-03-21T07:07:12.238Z,2.80
2023-03-21T07:12:15.037Z,2.47
2023-03-21T07:17:44.075Z,1.95
2023-03-21T07:22:46.925Z,2.50
2023-03-21T07:27:50.408Z,2.28
2023-03-21T07:32:53.795Z,2.78
2023-03-21T07:37:56.611Z,2.25
2023-03-21T07:42:59.399Z,2.28
2023-03-21T07:48:09.702Z,2.13
2023-03-21T07:53:12.509Z,2.67
2023-03-21T07:58:15.427Z,2.47
2023-03-21T08:03:18.317Z,2.00
2023-03-21T08:08:21.363Z,2.40
2023-03-21T08:13:24.194Z,2.22
2023-03-21T08:18:26.976Z,2.20
2023-03-21T08:23:30.099Z,2.40
2023-03-21T08:28:32.851Z,2.30
2023-03-21T08:33:35.735Z,2.10
2023-03-21T08:38:38.752Z,2.20
2023-03-21T08:43:41.471Z,2.00
2023-03-21T08:48:44.217Z,2.28
2023-03-21T08:53:47.054Z,2.30
2023-03-21T08:58:50.091Z,2.33
2023-03-21T09:03:52.871Z,1.95
2023-03-21T09:08:55.539Z,2.83
2023-03-21T09:13:58.364Z,3.35
2023-03-21T09:19:01.557Z,2.35
2023-03-21T09:24:06.072Z,2.70
2023-03-21T09:29:09.135Z,2.20
2023-03-21T09:34:12.385Z,2.33
2023-03-21T09:39:16.603Z,2.47
2023-03-21T09:44:44.894Z,2.33
2023-03-21T09:50:01.755Z,1.88
2023-03-21T09:55:23.361Z,2.25
2023-03-21T10:00:30.311Z,1.95
2023-03-21T10:05:34.703Z,2.90
2023-03-21T10:11:01.652Z,2.00
2023-03-21T10:16:15.683Z,2.28
2023-03-21T10:21:56.572Z,2.00
2023-03-21T10:26:51.514Z,2.28
2023-03-21T10:31:55.128Z,2.10
2023-03-21T10:36:58.015Z,2.30
2023-03-21T10:42:01.487Z,2.10
2023-03-21T10:47:09.447Z,2.15
2023-03-21T10:52:14.392Z,2.45
2023-03-21T10:57:22.220Z,2.30
2023-03-21T11:02:34.033Z,2.50
2023-03-21T11:07:38.055Z,2.50
2023-03-21T11:12:41.859Z,3.30
2023-03-21T11:17:45.651Z,3.10
2023-03-21T11:22:49.109Z,3.00
2023-03-21T11:27:54.723Z,3.22
2023-03-21T11:32:59.390Z,2.90
2023-03-21T11:38:02.604Z,2.45
2023-03-21T11:43:17.423Z,2.80
2023-03-21T11:48:20.326Z,2.70
2023-03-21T11:53:50.268Z,2.20
2023-03-21T11:59:08.554Z,1.92
2023-03-21T12:04:21.674Z,2.60
2023-03-21T12:09:43.193Z,2.22
2023-03-21T12:15:07.020Z,2.72
2023-03-21T12:20:26.054Z,2.33
2023-03-21T12:25:34.057Z,2.78
2023-03-21T12:30:43.312Z,2.42
2023-03-21T12:36:23.725Z,2.05
2023-03-21T12:41:30.971Z,2.42
2023-03-21T12:46:47.909Z,3.05
2023-03-21T12:51:57.239Z,2.50
2023-03-21T12:57:06.005Z,2.67
2023-03-21T13:02:37.214Z,2.75
2023-03-21T13:07:42.378Z,3.25
2023-03-21T13:13:02.144Z,4.38
2023-03-21T13:18:24.069Z,4.00
2023-03-21T13:23:37.782Z,4.07
2023-03-21T13:28:41.634Z,3.65
2023-03-21T13:33:47.596Z,5.70
2023-03-21T13:38:55.234Z,3.70
2023-03-21T13:44:03.740Z,3.22
2023-03-21T13:49:09.700Z,4.30
2023-03-21T13:54:15.783Z,3.30
2023-03-21T13:59:40.474Z,3.75
2023-03-21T14:05:04.086Z,3.78
2023-03-21T14:10:35.271Z,3.20
2023-03-21T14:15:43.718Z,2.88
2023-03-21T14:25:59.391Z,3.25
2023-03-21T14:31:02.445Z,3.67
2023-03-21T14:36:09.264Z,3.33
2023-03-21T14:41:26.883Z,3.53
2023-03-21T14:46:29.855Z,3.65
2023-03-21T14:51:32.664Z,3.65
2023-03-21T14:56:36.209Z,3.03
2023-03-21T15:01:40.301Z,3.70
2023-03-21T15:06:55.786Z,3.75
2023-03-21T15:11:58.986Z,3.17
2023-03-21T15:17:04.934Z,2.70
2023-03-21T15:22:35.488Z,2.75
2023-03-21T15:27:41.268Z,3.42
2023-03-21T15:32:47.504Z,3.80
2023-03-21T15:37:59.477Z,3.75
2023-03-21T15:43:15.370Z,3.33
2023-03-21T15:48:22.870Z,3.75
2023-03-21T15:53:26.156Z,3.20
2023-03-21T15:58:39.106Z,3.78
2023-03-21T16:04:18.960Z,3.50
2023-03-21T16:09:24.750Z,3.47
2023-03-21T16:14:30.505Z,3.88
2023-03-21T16:19:33.328Z,4.30
2023-03-21T16:24:36.154Z,3.50
2023-03-21T16:29:38.972Z,3.85
2023-03-21T16:34:42.493Z,4.25
2023-03-21T16:39:45.171Z,3.67
2023-03-21T16:44:48.085Z,4.10
2023-03-21T16:49:51.289Z,4.30
2023-03-21T16:54:54.012Z,4.32
2023-03-21T16:59:56.933Z,3.78
2023-03-21T17:04:59.732Z,3.00
2023-03-21T17:10:02.478Z,3.42
2023-03-21T17:15:06.510Z,4.50
2023-03-21T17:20:24.478Z,4.27
2023-03-21T17:25:27.604Z,4.70
2023-03-21T17:30:33.987Z,4.75
2023-03-21T17:35:36.796Z,4.28
2023-03-21T17:40:39.739Z,4.35
2023-03-21T17:45:43.009Z,4.07
2023-03-21T17:50:45.884Z,4.78
2023-03-21T17:55:48.637Z,4.43
2023-03-21T18:00:51.360Z,4.50
2023-03-21T18:05:54.111Z,3.60
2023-03-21T18:10:56.985Z,4.72
2023-03-21T18:16:00.596Z,4.15
2023-03-21T18:21:03.760Z,4.20
2023-03-21T18:26:08.353Z,4.13
2023-03-21T18:31:19.362Z,5.15
2023-03-21T18:36:25.781Z,4.65
2023-03-21T18:41:30.990Z,3.95
2023-03-21T18:46:33.837Z,3.97
2023-03-21T18:51:36.883Z,4.38
2023-03-21T19:02:04.215Z,4.13
2023-03-21T19:07:08.870Z,4.80
2023-03-21T19:12:11.697Z,3.88
2023-03-21T19:22:37.902Z,4.15
2023-03-21T19:27:40.931Z,4.28
2023-03-21T19:32:44.515Z,4.85
2023-03-21T19:37:47.591Z,4.05
2023-03-21T19:42:50.402Z,5.17
2023-03-21T19:47:53.303Z,4.18
2023-03-21T19:52:56.784Z,5.03
2023-03-21T19:57:59.571Z,4.40
2023-03-21T20:03:03.302Z,4.28
2023-03-21T20:08:10.618Z,3.47
2023-03-21T20:13:13.627Z,3.97
2023-03-21T20:18:16.539Z,4.07
2023-03-21T20:23:20.254Z,3.65
2023-03-21T20:28:27.172Z,3.97
2023-03-21T20:33:32.257Z,4.03
2023-03-21T20:38:36.086Z,4.63
2023-03-21T20:49:01.637Z,4.47
2023-03-21T20:54:04.586Z,4.40
2023-03-21T20:59:18.809Z,3.43
2023-03-21T21:04:55.824Z,4.30
2023-03-21T21:09:54.332Z,3.90
2023-03-21T21:14:57.113Z,4.63
2023-03-21T21:20:02.027Z,3.25
2023-03-21T21:25:07.008Z,3.85
2023-03-21T21:30:10.856Z,4.18
2023-03-21T21:35:17.975Z,4.18
2023-03-21T21:40:23.590Z,4.00
2023-03-21T21:45:26.460Z,3.75
2023-03-21T21:50:29.168Z,3.47
2023-03-21T21:55:35.549Z,4.20
2023-03-21T22:00:38.574Z,4.00
2023-03-21T22:05:41.851Z,4.45
2023-03-21T22:10:47.778Z,3.70
2023-03-21T22:15:50.947Z,4.25
2023-03-21T22:20:54.051Z,3.80
2023-03-21T22:25:57.599Z,4.47
2023-03-21T22:31:11.698Z,4.85
2023-03-21T22:36:14.465Z,4.50
2023-03-21T22:41:17.211Z,4.45
2023-03-21T22:46:19.987Z,4.57
2023-03-21T22:51:22.797Z,5.10
2023-03-21T22:56:25.508Z,4.95
2023-03-21T23:01:28.300Z,4.78
2023-03-21T23:06:31.940Z,3.58
2023-03-21T23:16:38.621Z,4.20
2023-03-21T23:21:41.453Z,4.57
2023-03-21T23:26:44.251Z,5.10
2023-03-21T23:31:47.294Z,3.63
2023-03-21T23:36:50.092Z,4.97
2023-03-21T23:41:52.857Z,6.80
2023-03-21T23:46:55.632Z,6.38
2023-03-21T23:51:58.367Z,7.13
2023-03-21T23:57:01.132Z,8.17
